Bookmark and Share
Track history (hours):
 

APL Norway

Last reported at 2014-Apr-22 02:32 UTC. Time now 2014-Apr-23 15:07 UTC.
Position N 22°19' E 119°52'.

Length 295 m; draft 12.8 m.

Type: Cargo ship. MMSI: 636013456.

NotesDate/timePositionNaut miles runAvg speedWind from/ knotsBaromVisibWave heightAir tempDewpointWater temp
2014-Apr-22 02:32N 22°19' E 119°52'1414.3
2014-Apr-22 01:33N 22°30' E 120°00'1413.5
2014-Apr-22 00:33N 22°33' E 120°15'4 2.0
2014-Apr-21 22:29N 22°34' E 120°19'0 0.0
2014-Apr-21 21:29N 22°34' E 120°19'0 0.0
2014-Apr-21 20:29N 22°34' E 120°19'0 0.0
2014-Apr-21 19:29N 22°34' E 120°19'0 0.0
2014-Apr-21 18:29N 22°34' E 120°19'0 0.0
2014-Apr-21 17:29N 22°34' E 120°19'0 0.0
2014-Apr-21 16:29N 22°34' E 120°19'0 0.0
2014-Apr-21 15:23N 22°34' E 120°19'1 1.4
2014-Apr-21 14:33N 22°33' E 120°18'4 3.4
2014-Apr-21 13:29N 22°34' E 120°14'0 0.1
2014-Apr-21 12:29N 22°34' E 120°14'0 0.1
2014-Apr-21 11:29N 22°34' E 120°14'0 0.1
2014-Apr-21 10:29N 22°34' E 120°14'0 0.0
2014-Apr-21 09:29N 22°34' E 120°14'0 0.0
2014-Apr-21 08:29N 22°34' E 120°14'0 0.1
2014-Apr-21 07:29N 22°34' E 120°14'0 0.1
2014-Apr-21 06:29N 22°34' E 120°14'0 0.0
2014-Apr-21 05:23N 22°34' E 120°14'0 0.1
2014-Apr-21 04:29N 22°34' E 120°14'0 0.1
2014-Apr-21 03:29N 22°34' E 120°14'0 0.0
2014-Apr-21 02:29N 22°34' E 120°14'0 0.0
2014-Apr-21 01:29N 22°34' E 120°14'0 0.0
2014-Apr-21 00:23N 22°34' E 120°14'0 0.0
2014-Apr-20 23:11N 22°34' E 120°14'0 0.0
2014-Apr-20 22:23N 22°34' E 120°14'0 0.1
2014-Apr-20 21:33N 22°34' E 120°14'4 4.4
2014-Apr-20 20:33N 22°33' E 120°19'1 0.5
2014-Apr-20 19:33N 22°34' E 120°19'0 0.0
2014-Apr-20 18:33N 22°34' E 120°19'0 0.0
2014-Apr-20 17:33N 22°34' E 120°19'0 0.0
2014-Apr-20 16:33N 22°34' E 120°19'0 0.0
2014-Apr-20 15:33N 22°34' E 120°19'0 0.0
2014-Apr-20 14:33N 22°34' E 120°19'0 0.0
2014-Apr-20 13:33N 22°34' E 120°19'0 0.0
2014-Apr-20 12:33N 22°34' E 120°19'0 0.0
2014-Apr-20 11:33N 22°34' E 120°19'3 3.5
2014-Apr-20 10:33N 22°32' E 120°16'4 4.0
2014-Apr-20 09:33N 22°31' E 120°12'3 3.4
2014-Apr-20 08:33N 22°31' E 120°08'1 0.9
2014-Apr-20 07:33N 22°31' E 120°07'7 7.1
2014-Apr-20 06:33N 22°30' E 119°59'1010.4
2014-Apr-20 05:33N 22°30' E 119°48'  
2014-Apr-17 06:20N 22°06' E 114°14'0 0.0
2014-Apr-17 04:08N 22°06' E 114°14'0 0.0
2014-Apr-17 03:32N 22°06' E 114°14'0 0.0
2014-Apr-17 00:20N 22°06' E 114°14'0 0.0
2014-Apr-16 21:32N 22°06' E 114°14'0 0.0
2014-Apr-16 20:14N 22°06' E 114°14'0 0.1
2014-Apr-16 19:32N 22°06' E 114°14'0 0.0
2014-Apr-16 18:32N 22°06' E 114°14'0 0.0
2014-Apr-16 17:20N 22°06' E 114°14'0 0.0
2014-Apr-16 16:20N 22°06' E 114°14'0 0.0
2014-Apr-16 15:32N 22°06' E 114°14'0 0.0
2014-Apr-16 13:20N 22°06' E 114°14'0 0.0
2014-Apr-16 11:20N 22°06' E 114°14'0 0.0
2014-Apr-16 07:20N 22°06' E 114°14'0 0.0
2014-Apr-16 04:32N 22°06' E 114°14'0 0.0
2014-Apr-16 01:26N 22°06' E 114°14'0 0.0
2014-Apr-15 06:32N 22°06' E 114°14'0 0.0
2014-Apr-15 03:32N 22°06' E 114°14'0 0.0
2014-Apr-15 02:32N 22°06' E 114°14'0 0.0
2014-Apr-15 00:32N 22°06' E 114°14'0 0.0
2014-Apr-14 08:32N 22°06' E 114°14'0 0.0
2014-Apr-13 10:08N 22°06' E 114°15'0 0.0
2014-Apr-13 06:20N 22°06' E 114°15'0 0.0
2014-Apr-13 05:26N 22°06' E 114°15'0 0.0
2014-Apr-12 17:32N 22°06' E 114°15'  

Dump ship's entire track history

sailing weather and tide predictions

APL Norway — A8NC4 — position and weather